createdAt,value
2023-06-04T00:01:01.081Z,47.58
2023-06-04T00:03:27.966Z,47.72
2023-06-04T00:05:54.692Z,48.01
2023-06-04T00:08:21.214Z,47.72
2023-06-04T00:10:47.705Z,48.00
2023-06-04T00:13:14.313Z,47.88
2023-06-04T00:15:41.079Z,47.75
2023-06-04T00:18:07.618Z,47.93
2023-06-04T00:20:34.215Z,48.40
2023-06-04T00:23:00.709Z,48.34
2023-06-04T00:25:27.153Z,47.96
2023-06-04T00:27:53.599Z,48.64
2023-06-04T00:30:20.117Z,48.74
2023-06-04T00:32:48.203Z,49.06
2023-06-04T00:35:15.311Z,48.85
2023-06-04T00:37:41.753Z,49.19
2023-06-04T00:40:08.766Z,48.74
2023-06-04T00:42:35.250Z,49.06
2023-06-04T00:45:02.369Z,49.62
2023-06-04T00:47:28.905Z,50.08
2023-06-04T00:49:57.995Z,49.68
2023-06-04T00:52:25.295Z,50.21
2023-06-04T00:54:52.970Z,50.20
2023-06-04T00:57:19.497Z,50.26
2023-06-04T00:59:46.128Z,50.32
2023-06-04T01:02:16.766Z,50.74
2023-06-04T01:04:47.404Z,50.75
2023-06-04T01:07:15.294Z,50.40
2023-06-04T01:09:41.979Z,50.66
2023-06-04T01:12:09.306Z,50.90
2023-06-04T01:14:36.699Z,50.52
2023-06-04T01:17:09.516Z,50.66
2023-06-04T01:20:02.090Z,50.60
2023-06-04T01:22:45.099Z,50.81
2023-06-04T01:25:34.606Z,51.35
2023-06-04T01:28:04.097Z,51.26
2023-06-04T01:30:35.204Z,51.45
2023-06-04T01:33:02.934Z,51.44
2023-06-04T01:35:34.182Z,51.84
2023-06-04T01:38:00.791Z,51.96
2023-06-04T01:40:27.790Z,52.21
2023-06-04T01:42:54.874Z,52.06
2023-06-04T01:45:22.816Z,51.96
2023-06-04T01:47:49.546Z,52.61
2023-06-04T01:50:16.789Z,52.50
2023-06-04T01:52:43.572Z,53.01
2023-06-04T01:55:13.216Z,53.23
2023-06-04T01:57:40.603Z,53.70
2023-06-04T02:00:13.092Z,53.80
2023-06-04T02:02:41.454Z,54.12
2023-06-04T02:05:09.242Z,53.73
2023-06-04T02:07:40.236Z,54.24
2023-06-04T02:10:09.095Z,54.56
2023-06-04T02:12:41.021Z,54.99
2023-06-04T02:15:08.589Z,54.83
2023-06-04T02:17:38.590Z,54.61
2023-06-04T02:20:06.938Z,54.81
2023-06-04T02:22:33.411Z,54.94
2023-06-04T02:24:59.830Z,54.96
2023-06-04T02:27:26.322Z,55.47
2023-06-04T02:29:52.788Z,56.02
2023-06-04T02:32:19.282Z,55.84
2023-06-04T02:34:45.786Z,55.28
2023-06-04T02:37:12.388Z,56.29
2023-06-04T02:39:38.848Z,56.23
2023-06-04T02:42:05.836Z,56.59
2023-06-04T02:44:32.337Z,56.37
2023-06-04T02:46:59.015Z,56.96
2023-06-04T02:49:26.110Z,56.75
2023-06-04T02:51:52.566Z,56.60
2023-06-04T02:54:19.028Z,57.33
2023-06-04T02:56:45.533Z,57.71
2023-06-04T02:59:14.432Z,57.46
2023-06-04T03:01:41.706Z,57.93
2023-06-04T03:04:11.082Z,57.47
2023-06-04T03:06:40.602Z,57.98
2023-06-04T03:09:08.113Z,58.27
2023-06-04T03:11:34.595Z,57.96
2023-06-04T03:14:01.096Z,58.49
2023-06-04T03:16:27.746Z,59.25
2023-06-04T03:18:54.347Z,58.62
2023-06-04T03:21:20.845Z,59.13
2023-06-04T03:23:47.353Z,59.38
2023-06-04T03:26:13.894Z,59.41
2023-06-04T03:28:41.243Z,59.01
2023-06-04T03:31:07.918Z,59.45
2023-06-04T03:33:34.568Z,59.28
2023-06-04T03:36:01.557Z,59.50
2023-06-04T03:38:28.063Z,60.02
2023-06-04T03:40:54.589Z,59.77
2023-06-04T03:43:22.021Z,59.83
2023-06-04T03:45:48.512Z,59.95
2023-06-04T03:48:14.998Z,60.72
2023-06-04T03:50:42.321Z,60.85
2023-06-04T03:53:09.033Z,61.07
2023-06-04T03:55:35.468Z,60.41
2023-06-04T03:58:01.957Z,60.61
2023-06-04T04:00:28.678Z,60.47
2023-06-04T04:02:55.304Z,61.05
2023-06-04T04:05:21.900Z,61.16
2023-06-04T04:07:49.089Z,61.70
2023-06-04T04:10:15.554Z,60.34
2023-06-04T04:12:42.135Z,60.29
2023-06-04T04:15:09.517Z,60.41
2023-06-04T04:17:36.096Z,60.27
2023-06-04T04:20:05.068Z,59.73
2023-06-04T04:22:32.341Z,59.42
2023-06-04T04:24:59.041Z,60.37
2023-06-04T04:27:25.503Z,59.53
2023-06-04T04:29:52.126Z,59.49
2023-06-04T04:32:18.623Z,59.80
2023-06-04T04:34:55.569Z,59.90
2023-06-04T04:37:22.863Z,59.11
2023-06-04T04:39:52.772Z,58.79
2023-06-04T04:42:20.256Z,58.44
2023-06-04T04:44:48.960Z,59.25
2023-06-04T04:47:16.428Z,58.91
2023-06-04T04:49:43.141Z,59.98
2023-06-04T04:52:09.650Z,59.63
2023-06-04T04:54:36.118Z,60.35
2023-06-04T04:57:13.388Z,59.24
2023-06-04T04:59:40.919Z,58.42
2023-06-04T05:02:07.634Z,57.93
2023-06-04T05:04:34.283Z,57.86
2023-06-04T05:07:00.965Z,57.73
2023-06-04T05:09:27.539Z,57.80
2023-06-04T05:11:54.068Z,56.88
2023-06-04T05:14:20.563Z,57.99
2023-06-04T05:16:49.592Z,57.94
2023-06-04T05:19:19.164Z,57.00
2023-06-04T05:21:45.670Z,57.58
2023-06-04T05:24:12.181Z,56.97
2023-06-04T05:26:40.689Z,57.07
2023-06-04T05:29:08.616Z,56.94
2023-06-04T05:31:35.920Z,56.86
2023-06-04T05:34:03.010Z,55.62
2023-06-04T05:36:31.324Z,56.16
2023-06-04T05:38:58.767Z,56.39
2023-06-04T05:41:25.330Z,55.75
2023-06-04T05:43:51.839Z,55.43
2023-06-04T05:46:18.670Z,55.86
2023-06-04T05:48:45.140Z,56.21
2023-06-04T05:51:11.678Z,55.69
2023-06-04T05:53:38.121Z,54.63
2023-06-04T05:56:04.857Z,54.31
2023-06-04T05:58:32.232Z,55.13
2023-06-04T06:00:58.673Z,55.09
2023-06-04T06:03:25.233Z,55.20
2023-06-04T06:05:51.984Z,54.87
2023-06-04T06:08:18.477Z,53.47
2023-06-04T06:10:44.934Z,52.37
2023-06-04T06:13:11.656Z,52.66
2023-06-04T06:15:38.134Z,51.55
2023-06-04T06:18:04.995Z,51.40
2023-06-04T06:20:31.589Z,49.29
2023-06-04T06:22:58.105Z,49.14
2023-06-04T06:25:24.659Z,47.90
2023-06-04T06:27:51.201Z,46.25
2023-06-04T06:30:18.463Z,46.40
2023-06-04T06:32:44.954Z,46.47
2023-06-04T06:35:11.437Z,44.83
2023-06-04T06:37:42.937Z,45.68
2023-06-04T06:40:10.029Z,42.98
2023-06-04T06:42:36.473Z,43.65
2023-06-04T06:45:03.101Z,43.40
2023-06-04T06:47:29.670Z,40.20
2023-06-04T06:49:56.302Z,41.78
2023-06-04T06:52:22.765Z,41.94
2023-06-04T06:54:49.273Z,39.49
2023-06-04T06:57:16.161Z,38.64
2023-06-04T06:59:42.620Z,39.44
2023-06-04T07:02:09.111Z,38.02
2023-06-04T07:04:37.406Z,40.65
2023-06-04T07:07:04.212Z,40.34
2023-06-04T07:09:30.821Z,43.01
2023-06-04T07:11:57.297Z,39.01
2023-06-04T07:14:23.760Z,37.37
2023-06-04T07:16:50.332Z,38.35
2023-06-04T07:19:16.848Z,37.46
2023-06-04T07:21:43.335Z,37.36
2023-06-04T07:24:09.977Z,36.76
2023-06-04T07:26:36.720Z,36.90
2023-06-04T07:29:03.449Z,37.39
2023-06-04T07:31:29.965Z,36.35
2023-06-04T07:33:56.475Z,37.99
2023-06-04T07:36:23.783Z,37.72
2023-06-04T07:38:50.353Z,37.23
2023-06-04T07:41:16.936Z,37.73
2023-06-04T07:43:44.398Z,34.80
2023-06-04T07:46:11.939Z,34.57
2023-06-04T07:48:38.407Z,34.47
2023-06-04T07:51:08.131Z,33.61
2023-06-04T07:53:34.786Z,34.20
2023-06-04T07:56:01.312Z,34.99
2023-06-04T07:58:27.872Z,36.69
2023-06-04T08:00:54.489Z,35.34
2023-06-04T08:03:21.638Z,37.05
2023-06-04T08:05:49.427Z,34.40
2023-06-04T08:08:16.098Z,34.72
2023-06-04T08:10:42.865Z,36.12
2023-06-04T08:13:10.967Z,34.79
2023-06-04T08:15:40.037Z,34.65
2023-06-04T08:18:06.674Z,35.59
2023-06-04T08:20:33.198Z,35.83
2023-06-04T08:22:59.693Z,34.73
2023-06-04T08:25:26.331Z,33.36
2023-06-04T08:27:52.955Z,33.38
2023-06-04T08:30:20.410Z,33.92
2023-06-04T08:32:46.993Z,33.37
2023-06-04T08:35:13.674Z,33.27
2023-06-04T08:37:40.998Z,33.51
2023-06-04T08:40:09.844Z,32.61
2023-06-04T08:42:42.147Z,33.15
2023-06-04T08:45:17.587Z,32.59
2023-06-04T08:47:52.062Z,33.75
2023-06-04T08:50:21.901Z,32.58
2023-06-04T08:52:49.385Z,32.62
2023-06-04T08:55:16.076Z,32.63
2023-06-04T08:57:42.671Z,33.09
2023-06-04T09:00:10.774Z,32.43
2023-06-04T09:02:38.852Z,32.28
2023-06-04T09:05:10.117Z,32.14
2023-06-04T09:07:40.477Z,31.92
2023-06-04T09:10:13.858Z,32.42
2023-06-04T09:12:47.506Z,32.02
2023-06-04T09:15:14.378Z,32.04
2023-06-04T09:17:40.968Z,32.81
2023-06-04T09:20:10.781Z,33.18
2023-06-04T09:22:38.628Z,32.19
2023-06-04T09:25:08.304Z,32.91
2023-06-04T09:27:41.428Z,33.29
2023-06-04T09:30:11.445Z,32.95
2023-06-04T09:32:38.074Z,33.99
2023-06-04T09:35:15.816Z,34.26
2023-06-04T09:37:43.393Z,34.68
2023-06-04T09:40:10.609Z,33.37
2023-06-04T09:42:43.831Z,31.97
2023-06-04T09:45:10.960Z,32.77
2023-06-04T09:47:44.413Z,32.79
2023-06-04T09:50:14.546Z,31.87
2023-06-04T09:52:41.800Z,31.38
2023-06-04T09:55:23.232Z,31.90
2023-06-04T09:57:53.586Z,31.81
2023-06-04T10:00:24.306Z,31.48
2023-06-04T10:02:56.935Z,31.54
2023-06-04T10:05:25.486Z,31.48
2023-06-04T10:07:55.708Z,30.41
2023-06-04T10:10:26.635Z,31.50
2023-06-04T10:13:03.611Z,31.05
2023-06-04T10:15:30.419Z,29.31
2023-06-04T10:17:57.493Z,29.62
2023-06-04T10:20:24.709Z,27.84
2023-06-04T10:22:51.702Z,28.55
2023-06-04T10:25:19.342Z,28.81
2023-06-04T10:27:47.559Z,27.78
2023-06-04T10:30:14.257Z,28.33
2023-06-04T10:32:41.915Z,26.74
2023-06-04T10:35:09.191Z,25.63
2023-06-04T10:37:36.100Z,25.75
2023-06-04T10:40:05.738Z,26.33
2023-06-04T10:42:40.301Z,27.62
2023-06-04T10:45:14.626Z,27.17
2023-06-04T10:47:42.673Z,27.03
2023-06-04T10:50:56.234Z,28.57
2023-06-04T10:53:23.915Z,28.17
2023-06-04T10:55:54.365Z,27.25
2023-06-04T10:58:22.067Z,28.03
2023-06-04T11:01:04.672Z,27.02
2023-06-04T11:03:38.483Z,27.31
2023-06-04T11:06:16.943Z,27.12
2023-06-04T11:08:46.131Z,27.25
2023-06-04T11:11:16.764Z,27.45
2023-06-04T11:13:44.813Z,27.48
2023-06-04T11:16:18.964Z,26.73
2023-06-04T11:18:55.736Z,27.61
2023-06-04T11:21:22.680Z,26.63
2023-06-04T11:23:49.584Z,27.08
2023-06-04T11:26:16.118Z,26.54
2023-06-04T11:28:44.349Z,26.85
2023-06-04T11:31:11.376Z,26.87
2023-06-04T11:33:46.139Z,27.15
2023-06-04T11:36:29.720Z,26.04
2023-06-04T11:38:57.772Z,27.27
2023-06-04T11:41:28.013Z,27.88
2023-06-04T11:43:54.429Z,27.54
2023-06-04T11:46:21.663Z,26.24
2023-06-04T11:48:48.215Z,26.89
2023-06-04T11:51:14.725Z,26.35
2023-06-04T11:53:41.700Z,26.74
2023-06-04T11:56:08.472Z,26.52
2023-06-04T11:58:35.478Z,26.27
2023-06-04T12:01:02.236Z,26.19
2023-06-04T12:03:38.561Z,26.54
2023-06-04T12:06:18.632Z,26.07
2023-06-04T12:08:55.727Z,26.08
2023-06-04T12:11:35.939Z,25.92
2023-06-04T12:14:05.215Z,26.02
2023-06-04T12:16:32.193Z,26.23
2023-06-04T12:19:09.761Z,25.30
2023-06-04T12:21:36.882Z,25.16
2023-06-04T12:24:07.008Z,26.02
2023-06-04T12:26:38.926Z,24.76
2023-06-04T12:29:13.069Z,25.26
2023-06-04T12:31:44.148Z,24.40
2023-06-04T12:34:12.587Z,24.95
2023-06-04T12:36:39.398Z,25.36
2023-06-04T12:39:06.616Z,26.56
2023-06-04T12:41:37.593Z,25.30
2023-06-04T12:44:04.145Z,26.38
2023-06-04T12:46:30.664Z,25.51
2023-06-04T12:48:57.144Z,25.33
2023-06-04T12:51:23.789Z,25.62
2023-06-04T12:53:50.477Z,25.65
2023-06-04T12:56:17.178Z,25.35
2023-06-04T12:58:43.870Z,25.57
2023-06-04T13:01:11.230Z,26.04
2023-06-04T13:03:39.689Z,25.60
2023-06-04T13:06:06.785Z,25.66
2023-06-04T13:08:34.557Z,25.74
2023-06-04T13:11:02.603Z,24.99
2023-06-04T13:13:29.614Z,25.08
2023-06-04T13:15:56.321Z,25.84
2023-06-04T13:18:23.494Z,24.96
2023-06-04T13:20:50.536Z,24.57
2023-06-04T13:23:17.470Z,24.42
2023-06-04T13:25:44.257Z,24.24
2023-06-04T13:28:10.742Z,24.78
2023-06-04T13:30:40.219Z,25.82
2023-06-04T13:33:07.205Z,23.87
2023-06-04T13:35:33.971Z,24.04
2023-06-04T13:38:00.717Z,24.73
2023-06-04T13:40:27.236Z,25.90
2023-06-04T13:42:53.742Z,25.51
2023-06-04T13:45:21.280Z,25.20
2023-06-04T13:47:54.388Z,25.87
2023-06-04T13:50:22.483Z,25.51
2023-06-04T13:52:49.034Z,26.08
2023-06-04T13:55:15.488Z,25.59
2023-06-04T13:57:41.975Z,25.21
2023-06-04T14:00:09.216Z,24.82
2023-06-04T14:02:36.110Z,24.89
2023-06-04T14:05:02.750Z,24.97
2023-06-04T14:07:29.556Z,24.36
2023-06-04T14:09:57.178Z,24.14
2023-06-04T14:12:24.423Z,23.97
2023-06-04T14:14:51.555Z,23.57
2023-06-04T14:17:18.371Z,24.57
2023-06-04T14:19:45.512Z,24.25
2023-06-04T14:22:12.983Z,24.20
2023-06-04T14:24:41.487Z,24.04
2023-06-04T14:27:07.978Z,23.83
2023-06-04T14:29:37.441Z,23.94
2023-06-04T14:32:06.874Z,23.35
2023-06-04T14:34:33.630Z,24.68
2023-06-04T14:37:01.423Z,23.43
2023-06-04T14:39:37.635Z,23.37
2023-06-04T14:42:04.779Z,23.14
2023-06-04T14:44:31.618Z,23.02
2023-06-04T14:47:00.172Z,23.20
2023-06-04T14:49:27.189Z,23.16
2023-06-04T14:51:53.651Z,22.73
2023-06-04T14:54:20.265Z,22.55
2023-06-04T14:56:46.881Z,23.02
2023-06-04T14:59:13.347Z,22.61
2023-06-04T15:01:41.852Z,22.74
2023-06-04T15:04:09.294Z,22.78
2023-06-04T15:06:36.203Z,23.24
2023-06-04T15:09:04.590Z,23.48
2023-06-04T15:11:31.304Z,24.19
2023-06-04T15:13:57.935Z,24.55
2023-06-04T15:16:24.625Z,25.04
2023-06-04T15:18:51.277Z,24.29
2023-06-04T15:21:17.966Z,24.60
2023-06-04T15:23:47.047Z,23.79
2023-06-04T15:26:13.570Z,23.60
2023-06-04T15:28:40.077Z,24.20
2023-06-04T15:31:06.856Z,24.04
2023-06-04T15:33:33.676Z,24.02
2023-06-04T15:36:00.573Z,24.52
2023-06-04T15:38:27.227Z,24.37
2023-06-04T15:40:53.740Z,24.40
2023-06-04T15:43:20.268Z,24.39
2023-06-04T15:45:46.842Z,24.64
2023-06-04T15:48:13.347Z,24.45
2023-06-04T15:50:39.822Z,23.63
2023-06-04T15:53:06.313Z,24.60
2023-06-04T15:55:33.549Z,24.66
2023-06-04T15:58:00.065Z,25.45
2023-06-04T16:00:27.023Z,24.92
2023-06-04T16:02:53.549Z,23.84
2023-06-04T16:05:20.095Z,24.18
2023-06-04T16:07:46.585Z,24.45
2023-06-04T16:10:13.050Z,24.39
2023-06-04T16:12:41.084Z,24.65
2023-06-04T16:15:07.968Z,25.34
2023-06-04T16:17:34.607Z,24.49
2023-06-04T16:20:01.346Z,24.81
2023-06-04T16:22:27.902Z,25.28
2023-06-04T16:24:54.573Z,26.65
2023-06-04T16:27:21.552Z,26.64
2023-06-04T16:29:48.049Z,25.26
2023-06-04T16:32:14.529Z,26.06
2023-06-04T16:34:41.137Z,25.77
2023-06-04T16:37:08.086Z,25.70
2023-06-04T16:39:34.907Z,25.82
2023-06-04T16:42:03.934Z,26.56
2023-06-04T16:44:30.436Z,26.59
2023-06-04T16:46:57.038Z,26.17
2023-06-04T16:49:23.565Z,26.71
2023-06-04T16:51:59.951Z,26.24
2023-06-04T16:55:05.241Z,26.83
2023-06-04T16:57:32.785Z,26.65
2023-06-04T17:00:07.082Z,26.88
2023-06-04T17:02:40.229Z,26.54
2023-06-04T17:05:16.476Z,27.10
2023-06-04T17:07:50.231Z,27.35
2023-06-04T17:10:17.832Z,26.67
2023-06-04T17:12:44.515Z,26.57
2023-06-04T17:15:11.131Z,26.36
2023-06-04T17:17:37.676Z,26.90
2023-06-04T17:20:07.061Z,27.57
2023-06-04T17:22:33.581Z,27.25
2023-06-04T17:25:00.102Z,27.54
2023-06-04T17:27:26.679Z,26.44
2023-06-04T17:29:53.145Z,26.34
2023-06-04T17:32:19.621Z,26.60
2023-06-04T17:34:46.576Z,26.17
2023-06-04T17:37:13.096Z,26.55
2023-06-04T17:39:39.744Z,26.87
2023-06-04T17:42:06.568Z,27.09
2023-06-04T17:44:33.071Z,26.47
2023-06-04T17:47:04.729Z,27.10
2023-06-04T17:49:31.319Z,27.22
2023-06-04T17:51:59.740Z,27.26
2023-06-04T17:54:26.268Z,27.23
2023-06-04T17:56:52.854Z,27.52
2023-06-04T17:59:19.377Z,27.69
2023-06-04T18:01:48.260Z,28.27
2023-06-04T18:04:14.940Z,28.26
2023-06-04T18:06:41.608Z,27.95
2023-06-04T18:09:08.145Z,28.79
2023-06-04T18:11:34.651Z,28.79
2023-06-04T18:14:01.597Z,29.25
2023-06-04T18:16:28.268Z,29.48
2023-06-04T18:18:55.745Z,29.37
2023-06-04T18:21:22.362Z,29.35
2023-06-04T18:23:52.736Z,29.31
2023-06-04T18:26:19.519Z,29.42
2023-06-04T18:28:46.079Z,30.06
2023-06-04T18:31:12.702Z,30.19
2023-06-04T18:33:53.732Z,30.42
2023-06-04T18:36:20.728Z,30.16
2023-06-04T18:38:47.251Z,30.38
2023-06-04T18:41:14.148Z,30.45
2023-06-04T18:43:40.956Z,30.83
2023-06-04T18:46:07.608Z,31.09
2023-06-04T18:48:34.484Z,31.07
2023-06-04T18:51:00.963Z,31.06
2023-06-04T18:53:27.650Z,31.13
2023-06-04T18:55:55.338Z,31.56
2023-06-04T18:58:22.020Z,31.68
2023-06-04T19:00:48.669Z,31.58
2023-06-04T19:03:15.272Z,31.91
2023-06-04T19:05:41.863Z,32.19
2023-06-04T19:08:10.049Z,32.51
2023-06-04T19:10:36.558Z,32.60
2023-06-04T19:13:03.818Z,32.78
2023-06-04T19:15:30.574Z,32.94
2023-06-04T19:17:58.847Z,33.42
2023-06-04T19:20:25.756Z,33.45
2023-06-04T19:22:52.251Z,33.58
2023-06-04T19:25:18.708Z,33.29
2023-06-04T19:27:45.634Z,33.97
2023-06-04T19:30:12.182Z,33.77
2023-06-04T19:32:38.743Z,34.02
2023-06-04T19:35:07.977Z,34.19
2023-06-04T19:37:34.604Z,34.67
2023-06-04T19:40:01.644Z,34.69
2023-06-04T19:42:28.149Z,34.76
2023-06-04T19:44:54.805Z,34.83
2023-06-04T19:48:19.137Z,35.27
2023-06-04T19:50:45.934Z,35.60
2023-06-04T19:53:12.482Z,35.66
2023-06-04T19:55:39.013Z,35.74
2023-06-04T19:58:05.520Z,36.48
2023-06-04T20:00:32.068Z,36.40
2023-06-04T20:02:58.860Z,36.46
2023-06-04T20:05:25.441Z,37.10
2023-06-04T20:07:51.919Z,37.07
2023-06-04T20:10:24.749Z,37.64
2023-06-04T20:12:54.147Z,37.70
2023-06-04T20:15:21.104Z,37.58
2023-06-04T20:17:49.404Z,37.52
2023-06-04T20:20:16.884Z,37.44
2023-06-04T20:22:44.381Z,37.72
2023-06-04T20:25:11.819Z,38.20
2023-06-04T20:27:52.945Z,38.58
2023-06-04T20:30:19.971Z,38.24
2023-06-04T20:32:47.110Z,38.83
2023-06-04T20:35:14.167Z,38.66
2023-06-04T20:37:40.760Z,38.55
2023-06-04T20:40:08.173Z,39.23
2023-06-04T20:42:34.746Z,39.14
2023-06-04T20:45:01.647Z,39.06
2023-06-04T20:47:28.370Z,38.75
2023-06-04T20:49:55.617Z,38.84
2023-06-04T20:52:22.349Z,39.09
2023-06-04T20:54:48.858Z,39.03
2023-06-04T20:57:15.362Z,39.39
2023-06-04T20:59:42.055Z,39.41
2023-06-04T21:02:08.913Z,39.62
2023-06-04T21:04:35.615Z,39.42
2023-06-04T21:07:02.644Z,39.65
2023-06-04T21:09:29.297Z,39.74
2023-06-04T21:11:55.847Z,39.71
2023-06-04T21:14:22.305Z,39.99
2023-06-04T21:16:48.856Z,40.14
2023-06-04T21:19:15.396Z,40.02
2023-06-04T21:21:41.993Z,39.54
2023-06-04T21:24:08.811Z,39.89
2023-06-04T21:26:35.374Z,39.70
2023-06-04T21:29:01.904Z,39.86
2023-06-04T21:31:28.497Z,39.94
2023-06-04T21:33:55.035Z,40.10
2023-06-04T21:36:21.552Z,40.49
2023-06-04T21:38:48.709Z,40.32
2023-06-04T21:41:15.331Z,40.29
2023-06-04T21:43:41.804Z,40.39
2023-06-04T21:46:08.870Z,40.33
2023-06-04T21:49:20.687Z,40.33
2023-06-04T21:51:47.245Z,40.56
2023-06-04T21:54:13.784Z,41.10
2023-06-04T21:56:40.265Z,41.13
2023-06-04T21:59:07.877Z,41.01
2023-06-04T22:01:34.645Z,41.26
2023-06-04T22:04:01.169Z,41.44
2023-06-04T22:06:28.647Z,41.92
2023-06-04T22:08:55.159Z,41.30
2023-06-04T22:11:22.691Z,41.58
2023-06-04T22:13:49.188Z,41.44
2023-06-04T22:16:15.845Z,41.46
2023-06-04T22:21:15.443Z,41.55
2023-06-04T22:23:42.042Z,41.66
2023-06-04T22:26:08.589Z,41.66
2023-06-04T22:28:35.106Z,41.35
2023-06-04T22:31:01.699Z,41.32
2023-06-04T22:33:30.130Z,41.67
2023-06-04T22:35:56.871Z,41.71
2023-06-04T22:38:24.782Z,41.78
2023-06-04T22:40:51.876Z,41.50
2023-06-04T22:43:18.353Z,41.63
2023-06-04T22:45:44.919Z,41.93
2023-06-04T22:48:11.529Z,41.55
2023-06-04T22:50:38.158Z,42.11
2023-06-04T22:53:09.072Z,42.19
2023-06-04T22:55:36.800Z,42.15
2023-06-04T22:58:03.710Z,42.33
2023-06-04T23:00:31.094Z,42.37
2023-06-04T23:02:57.797Z,42.46
2023-06-04T23:05:25.708Z,42.29
2023-06-04T23:07:52.741Z,42.64
2023-06-04T23:10:19.421Z,42.49
2023-06-04T23:12:46.712Z,43.15
2023-06-04T23:15:24.228Z,42.67
2023-06-04T23:17:51.594Z,42.50
2023-06-04T23:20:19.135Z,42.92
2023-06-04T23:22:46.457Z,42.95
2023-06-04T23:25:13.095Z,42.82
2023-06-04T23:27:39.630Z,43.18
2023-06-04T23:30:06.844Z,43.02
2023-06-04T23:32:33.650Z,42.98
2023-06-04T23:35:00.224Z,42.62
2023-06-04T23:37:26.774Z,43.01
2023-06-04T23:39:53.657Z,42.94
2023-06-04T23:42:20.154Z,42.97
2023-06-04T23:44:46.667Z,43.63
2023-06-04T23:47:13.238Z,42.93
2023-06-04T23:49:39.752Z,43.22
2023-06-04T23:52:06.460Z,43.63
2023-06-04T23:54:33.038Z,43.40
2023-06-04T23:56:59.877Z,43.18
2023-06-04T23:59:27.128Z,43.32
